createdAt,value
2017-07-25T00:00:33.066Z,17.7
2017-07-25T00:01:32.750Z,17.59
2017-07-25T00:02:32.732Z,17.63
2017-07-25T00:03:32.740Z,17.64
2017-07-25T00:04:32.728Z,17.59
2017-07-25T00:05:33.048Z,17.63
2017-07-25T00:06:33.043Z,17.68
2017-07-25T00:07:33.029Z,17.56
2017-07-25T00:08:33.019Z,17.58
2017-07-25T00:09:33.018Z,17.54
2017-07-25T00:10:33.031Z,17.54
2017-07-25T00:11:33.021Z,17.38
2017-07-25T00:12:33.029Z,17.41
2017-07-25T00:13:33.006Z,17.36
2017-07-25T00:14:32.704Z,17.25
2017-07-25T00:15:32.996Z,17.28
2017-07-25T00:16:33.008Z,17.28
2017-07-25T00:17:32.995Z,17.19
2017-07-25T00:18:33.008Z,17.08
2017-07-25T00:19:33.001Z,17.14
2017-07-25T00:20:32.982Z,17.15
2017-07-25T00:21:32.978Z,17.08
2017-07-25T00:22:32.994Z,17.06
2017-07-25T00:23:32.668Z,17.03
2017-07-25T00:24:32.977Z,17.06
2017-07-25T00:25:32.958Z,17.15
2017-07-25T00:26:32.969Z,17.11
2017-07-25T00:27:32.942Z,17.01
2017-07-25T00:28:32.960Z,17.04
2017-07-25T00:29:32.949Z,17.06
2017-07-25T00:30:32.954Z,17.07
2017-07-25T00:31:32.639Z,17.06
2017-07-25T00:32:32.952Z,17.11
2017-07-25T00:33:32.927Z,17.16
2017-07-25T00:34:32.933Z,17.08
2017-07-25T00:35:32.943Z,17.15
2017-07-25T00:36:32.921Z,17.06
2017-07-25T00:37:32.918Z,17.06
2017-07-25T00:38:32.607Z,17.04
2017-07-25T00:39:32.924Z,17.11
2017-07-25T00:40:32.908Z,17.07
2017-07-25T00:41:32.599Z,17.11
2017-07-25T00:42:32.892Z,17.11
2017-07-25T00:43:32.912Z,17.11
2017-07-25T00:44:32.887Z,17.07
2017-07-25T00:45:32.585Z,17.07
2017-07-25T00:46:32.874Z,17.11
2017-07-25T00:47:32.884Z,17.07
2017-07-25T00:48:32.877Z,17.08
2017-07-25T00:49:32.849Z,17.06
2017-07-25T00:50:32.885Z,17.08
2017-07-25T00:51:32.869Z,17.14
2017-07-25T00:52:32.853Z,17.14
2017-07-25T00:53:32.850Z,17.15
2017-07-25T00:54:32.843Z,17.11
2017-07-25T00:55:32.856Z,17.04
2017-07-25T00:56:32.850Z,17.07
2017-07-25T00:57:32.849Z,17.01
2017-07-25T00:58:32.820Z,17.04
2017-07-25T00:59:32.836Z,17.04
2017-07-25T01:00:32.821Z,17
2017-07-25T01:01:32.503Z,17
2017-07-25T01:02:32.510Z,17.04
2017-07-25T01:03:32.808Z,17.03
2017-07-25T01:04:32.803Z,17.06
2017-07-25T01:05:32.799Z,16.98
2017-07-25T01:06:32.811Z,17.03
2017-07-25T01:07:32.493Z,16.96
2017-07-25T01:08:32.480Z,16.91
2017-07-25T01:09:32.786Z,16.96
2017-07-25T01:10:32.161Z,16.91
2017-07-25T01:11:32.483Z,16.89
2017-07-25T01:12:32.767Z,16.86
2017-07-25T01:13:32.759Z,16.91
2017-07-25T01:14:32.780Z,16.91
2017-07-25T01:15:32.451Z,16.89
2017-07-25T01:16:32.764Z,16.82
2017-07-25T01:17:32.767Z,16.93
2017-07-25T01:18:32.444Z,16.83
2017-07-25T01:19:32.726Z,16.83
2017-07-25T01:20:32.758Z,16.86
2017-07-25T01:21:32.721Z,16.89
2017-07-25T01:22:32.742Z,16.78
2017-07-25T01:23:32.742Z,16.79
2017-07-25T01:24:32.730Z,16.79
2017-07-25T01:25:32.715Z,16.85
2017-07-25T01:26:32.714Z,16.83
2017-07-25T01:27:32.751Z,16.85
2017-07-25T01:28:32.407Z,16.76
2017-07-25T01:29:32.712Z,16.81
2017-07-25T01:30:32.685Z,16.83
2017-07-25T01:31:32.699Z,16.76
2017-07-25T01:32:32.685Z,16.83
2017-07-25T01:33:32.701Z,16.79
2017-07-25T01:34:32.683Z,16.78
2017-07-25T01:35:32.687Z,16.85
2017-07-25T01:36:32.668Z,16.76
2017-07-25T01:37:32.674Z,16.88
2017-07-25T01:38:32.666Z,16.88
2017-07-25T01:39:32.362Z,16.89
2017-07-25T01:40:32.667Z,16.86
2017-07-25T01:41:32.636Z,16.89
2017-07-25T01:42:32.652Z,16.91
2017-07-25T01:43:32.649Z,16.94
2017-07-25T01:44:32.655Z,16.83
2017-07-25T01:45:32.025Z,16.79
2017-07-25T01:46:32.319Z,16.86
2017-07-25T01:47:32.325Z,16.81
2017-07-25T01:48:32.621Z,16.83
2017-07-25T01:49:32.631Z,16.89
2017-07-25T01:50:32.610Z,16.86
2017-07-25T01:51:32.630Z,16.81
2017-07-25T01:52:32.623Z,16.82
2017-07-25T01:53:32.305Z,16.83
2017-07-25T01:54:32.591Z,16.85
2017-07-25T01:55:32.590Z,16.82
2017-07-25T01:56:32.593Z,16.88
2017-07-25T01:57:32.589Z,16.93
2017-07-25T01:58:32.596Z,16.89
2017-07-25T01:59:32.574Z,16.93
2017-07-25T02:00:32.578Z,16.88
2017-07-25T02:01:32.571Z,16.86
2017-07-25T02:02:32.265Z,16.86
2017-07-25T02:03:32.571Z,16.88
2017-07-25T02:04:32.256Z,16.88
2017-07-25T02:05:32.559Z,16.96
2017-07-25T02:06:32.539Z,16.88
2017-07-25T02:07:32.562Z,16.88
2017-07-25T02:08:32.537Z,16.93
2017-07-25T02:09:32.542Z,16.91
2017-07-25T02:10:32.535Z,16.89
2017-07-25T02:11:32.216Z,16.91
2017-07-25T02:12:32.523Z,16.88
2017-07-25T02:13:32.532Z,16.89
2017-07-25T02:14:32.528Z,16.89
2017-07-25T02:15:32.508Z,16.93
2017-07-25T02:16:32.504Z,16.94
2017-07-25T02:17:32.517Z,16.98
2017-07-25T02:18:32.207Z,16.96
2017-07-25T02:19:32.504Z,16.97
2017-07-25T02:20:32.502Z,16.91
2017-07-25T02:21:32.491Z,16.94
2017-07-25T02:22:32.492Z,16.79
2017-07-25T02:23:32.472Z,16.78
2017-07-25T02:24:32.474Z,16.83
2017-07-25T02:25:32.470Z,16.86
2017-07-25T02:26:32.482Z,16.76
2017-07-25T02:27:32.156Z,16.86
2017-07-25T02:28:32.146Z,16.81
2017-07-25T02:29:32.162Z,16.79
2017-07-25T02:30:32.470Z,16.83
2017-07-25T02:31:31.819Z,16.81
2017-07-25T02:32:32.127Z,16.83
2017-07-25T02:33:32.448Z,16.85
2017-07-25T02:34:31.828Z,16.81
2017-07-25T02:35:32.433Z,16.85
2017-07-25T02:36:32.427Z,16.83
2017-07-25T02:37:32.416Z,16.78
2017-07-25T02:38:32.420Z,16.83
2017-07-25T02:39:32.114Z,16.88
2017-07-25T02:40:32.427Z,16.89
2017-07-25T02:41:32.400Z,16.88
2017-07-25T02:42:32.417Z,16.91
2017-07-25T02:43:32.404Z,16.86
2017-07-25T02:44:32.385Z,16.85
2017-07-25T02:45:32.385Z,16.88
2017-07-25T02:46:32.373Z,16.94
2017-07-25T02:47:32.383Z,16.91
2017-07-25T02:48:32.374Z,16.78
2017-07-25T02:49:32.386Z,16.88
2017-07-25T02:50:32.369Z,16.81
2017-07-25T02:51:32.055Z,16.81
2017-07-25T02:52:32.369Z,16.89
2017-07-25T02:53:32.057Z,16.91
2017-07-25T02:54:32.346Z,16.75
2017-07-25T02:55:32.347Z,16.75
2017-07-25T02:56:32.337Z,16.83
2017-07-25T02:57:32.328Z,16.89
2017-07-25T02:58:32.341Z,16.73
2017-07-25T02:59:32.345Z,16.79
2017-07-25T03:00:32.330Z,16.78
2017-07-25T03:01:32.303Z,16.71
2017-07-25T03:02:32.010Z,16.76
2017-07-25T03:03:32.333Z,16.78
2017-07-25T03:04:32.307Z,16.78
2017-07-25T03:05:32.003Z,16.78
2017-07-25T03:06:32.290Z,16.71
2017-07-25T03:07:32.310Z,16.71
2017-07-25T03:08:32.293Z,16.78
2017-07-25T03:09:32.294Z,16.79
2017-07-25T03:10:32.271Z,16.71
2017-07-25T03:11:31.977Z,16.81
2017-07-25T03:12:32.275Z,16.82
2017-07-25T03:13:32.280Z,16.79
2017-07-25T03:14:32.264Z,16.81
2017-07-25T03:15:32.254Z,16.83
2017-07-25T03:16:32.259Z,16.83
2017-07-25T03:17:32.268Z,16.83
2017-07-25T03:18:32.252Z,16.85
2017-07-25T03:19:32.229Z,16.88
2017-07-25T03:20:32.233Z,16.89
2017-07-25T03:21:32.253Z,16.86
2017-07-25T03:22:32.225Z,16.94
2017-07-25T03:23:32.238Z,16.78
2017-07-25T03:24:32.216Z,16.79
2017-07-25T03:25:31.919Z,16.82
2017-07-25T03:26:31.892Z,16.89
2017-07-25T03:27:32.219Z,16.79
2017-07-25T03:28:32.211Z,16.71
2017-07-25T03:29:32.206Z,16.75
2017-07-25T03:30:31.879Z,16.7
2017-07-25T03:31:32.202Z,16.71
2017-07-25T03:32:32.197Z,16.71
2017-07-25T03:33:32.196Z,16.75
2017-07-25T03:34:32.196Z,16.75
2017-07-25T03:35:32.172Z,16.7
2017-07-25T03:36:32.174Z,16.71
2017-07-25T03:37:32.169Z,16.66
2017-07-25T03:38:31.865Z,16.67
2017-07-25T03:39:32.168Z,16.71
2017-07-25T03:40:32.169Z,16.7
2017-07-25T03:41:32.143Z,16.7
2017-07-25T03:42:32.164Z,16.66
2017-07-25T03:43:32.128Z,16.67
2017-07-25T03:44:32.140Z,16.66
2017-07-25T03:45:32.130Z,16.71
2017-07-25T03:46:31.827Z,16.61
2017-07-25T03:47:32.132Z,16.6
2017-07-25T03:48:32.121Z,16.58
2017-07-25T03:49:31.818Z,16.52
2017-07-25T03:50:32.124Z,16.57
2017-07-25T03:51:31.800Z,16.56
2017-07-25T03:52:32.093Z,16.58
2017-07-25T03:53:31.791Z,16.53
2017-07-25T03:54:32.104Z,16.56
2017-07-25T03:55:31.780Z,16.52
2017-07-25T03:56:32.103Z,16.58
2017-07-25T03:57:32.073Z,16.48
2017-07-25T03:58:32.086Z,16.48
2017-07-25T03:59:32.079Z,16.43
2017-07-25T04:00:32.090Z,16.52
2017-07-25T04:01:32.056Z,16.43
2017-07-25T04:02:31.767Z,16.42
2017-07-25T04:03:32.060Z,16.41
2017-07-25T04:04:32.064Z,16.45
2017-07-25T04:05:32.037Z,16.42
2017-07-25T04:06:32.037Z,16.46
2017-07-25T04:07:32.051Z,16.45
2017-07-25T04:08:32.050Z,16.46
2017-07-25T04:09:32.040Z,16.48
2017-07-25T04:10:32.033Z,16.48
2017-07-25T04:11:32.039Z,16.45
2017-07-25T04:12:32.028Z,16.49
2017-07-25T04:13:32.009Z,16.5
2017-07-25T04:14:32.018Z,16.5
2017-07-25T04:15:32.012Z,16.56
2017-07-25T04:16:32.006Z,16.63
2017-07-25T04:17:31.985Z,16.63
2017-07-25T04:18:32.008Z,16.61
2017-07-25T04:19:31.990Z,16.66
2017-07-25T04:20:31.674Z,16.68
2017-07-25T04:21:31.977Z,16.68
2017-07-25T04:22:31.960Z,16.66
2017-07-25T04:23:31.991Z,16.66
2017-07-25T04:24:31.984Z,16.66
2017-07-25T04:25:31.641Z,16.63
2017-07-25T04:26:31.960Z,16.63
2017-07-25T04:27:31.940Z,16.67
2017-07-25T04:28:31.954Z,16.63
2017-07-25T04:29:31.943Z,16.68
2017-07-25T04:30:31.945Z,16.66
2017-07-25T04:31:31.933Z,16.61
2017-07-25T04:32:31.928Z,16.68
2017-07-25T04:33:31.912Z,16.66
2017-07-25T04:34:31.933Z,16.66
2017-07-25T04:35:31.922Z,16.68
2017-07-25T04:36:31.908Z,16.68
2017-07-25T04:37:31.903Z,16.67
2017-07-25T04:38:31.917Z,16.68
2017-07-25T04:39:31.896Z,16.64
2017-07-25T04:40:31.912Z,16.67
2017-07-25T04:41:31.883Z,16.7
2017-07-25T04:42:31.588Z,16.58
2017-07-25T04:43:31.879Z,16.71
2017-07-25T04:44:31.903Z,16.68
2017-07-25T04:45:31.559Z,16.63
2017-07-25T04:46:31.882Z,16.64
2017-07-25T04:47:31.851Z,16.58
2017-07-25T04:48:31.871Z,16.52
2017-07-25T04:49:31.543Z,16.52
2017-07-25T04:50:31.867Z,16.39
2017-07-25T04:51:31.860Z,16.39
2017-07-25T04:52:31.847Z,16.43
2017-07-25T04:53:31.839Z,16.34
2017-07-25T04:54:31.832Z,16.34
2017-07-25T04:55:31.528Z,16.23
2017-07-25T04:56:31.840Z,16.34
2017-07-25T04:57:31.836Z,16.23
2017-07-25T04:58:31.814Z,16.28
2017-07-25T04:59:31.828Z,16.28
2017-07-25T05:00:31.807Z,16.24
2017-07-25T05:01:31.827Z,16.24
2017-07-25T05:02:31.800Z,16.21
2017-07-25T05:03:31.802Z,16.17
2017-07-25T05:04:31.792Z,16.3
2017-07-25T05:05:31.775Z,16.17
2017-07-25T05:06:31.808Z,16.23
2017-07-25T05:07:31.790Z,16.21
2017-07-25T05:08:31.786Z,16.23
2017-07-25T05:09:31.768Z,16.21
2017-07-25T05:10:31.766Z,16.25
2017-07-25T05:11:31.772Z,16.24
2017-07-25T05:12:31.447Z,16.15
2017-07-25T05:13:31.756Z,16.21
2017-07-25T05:14:31.738Z,16.2
2017-07-25T05:15:31.755Z,16.25
2017-07-25T05:16:31.729Z,16.21
2017-07-25T05:17:31.444Z,16.23
2017-07-25T05:18:31.728Z,16.28
2017-07-25T05:19:31.438Z,16.28
2017-07-25T05:20:31.417Z,16.23
2017-07-25T05:21:31.737Z,16.28
2017-07-25T05:22:31.722Z,16.25
2017-07-25T05:23:31.705Z,16.3
2017-07-25T05:24:31.714Z,16.28
2017-07-25T05:25:31.713Z,16.21
2017-07-25T05:26:31.711Z,16.25
2017-07-25T05:27:31.677Z,16.2
2017-07-25T05:28:31.689Z,16.28
2017-07-25T05:29:31.388Z,16.25
2017-07-25T05:30:31.357Z,16.21
2017-07-25T05:31:31.686Z,16.21
2017-07-25T05:32:31.351Z,16.2
2017-07-25T05:33:31.674Z,16.23
2017-07-25T05:34:31.662Z,16.24
2017-07-25T05:35:31.359Z,16.28
2017-07-25T05:36:31.645Z,16.31
2017-07-25T05:37:31.035Z,16.31
2017-07-25T05:38:31.647Z,16.33
2017-07-25T05:39:31.330Z,16.31
2017-07-25T05:40:31.644Z,16.33
2017-07-25T05:41:31.648Z,16.24
2017-07-25T05:42:31.631Z,16.21
2017-07-25T05:43:31.626Z,16.31
2017-07-25T05:44:31.617Z,16.28
2017-07-25T05:45:31.593Z,16.24
2017-07-25T05:46:31.617Z,16.17
2017-07-25T05:47:31.600Z,16.24
2017-07-25T05:48:31.609Z,16.17
2017-07-25T05:49:31.589Z,16.27
2017-07-25T05:50:30.980Z,16.2
2017-07-25T05:51:31.574Z,16.27
2017-07-25T05:52:31.591Z,16.3
2017-07-25T05:53:31.567Z,16.3
2017-07-25T05:54:31.588Z,16.23
2017-07-25T05:55:31.562Z,16.28
2017-07-25T05:56:31.568Z,16.23
2017-07-25T05:57:31.572Z,16.28
2017-07-25T05:58:31.562Z,16.27
2017-07-25T05:59:31.549Z,16.24
2017-07-25T06:00:31.552Z,16.25
2017-07-25T06:01:31.525Z,16.3
2017-07-25T06:02:31.555Z,16.23
2017-07-25T06:03:31.540Z,16.28
2017-07-25T06:04:31.541Z,16.2
2017-07-25T06:05:31.522Z,16.3
2017-07-25T06:06:31.219Z,16.23
2017-07-25T06:07:31.194Z,16.25
2017-07-25T06:08:30.892Z,16.25
2017-07-25T06:09:31.203Z,16.23
2017-07-25T06:10:31.499Z,16.25
2017-07-25T06:11:31.179Z,16.24
2017-07-25T06:12:31.488Z,16.31
2017-07-25T06:13:31.495Z,16.31
2017-07-25T06:14:31.179Z,16.27
2017-07-25T06:15:31.163Z,16.31
2017-07-25T06:16:31.466Z,16.24
2017-07-25T06:17:31.162Z,16.21
2017-07-25T06:18:31.481Z,16.15
2017-07-25T06:19:31.458Z,16.17
2017-07-25T06:20:31.462Z,16.09
2017-07-25T06:21:31.466Z,16.2
2017-07-25T06:22:31.447Z,16.14
2017-07-25T06:23:31.455Z,16.12
2017-07-25T06:24:31.440Z,16.2
2017-07-25T06:25:31.442Z,16.14
2017-07-25T06:26:31.432Z,16.17
2017-07-25T06:27:31.423Z,16.2
2017-07-25T06:28:31.111Z,16.17
2017-07-25T06:29:31.432Z,16.28
2017-07-25T06:30:31.109Z,16.21
2017-07-25T06:31:31.127Z,16.2
2017-07-25T06:32:31.413Z,16.12
2017-07-25T06:33:31.077Z,16.17
2017-07-25T06:34:31.409Z,16.09
2017-07-25T06:35:31.079Z,16.2
2017-07-25T06:36:31.406Z,16.08
2017-07-25T06:37:31.059Z,16.14
2017-07-25T06:38:31.384Z,16.15
2017-07-25T06:39:31.369Z,16.11
2017-07-25T06:40:31.359Z,16.09
2017-07-25T06:41:31.046Z,16.15
2017-07-25T06:42:31.062Z,16.12
2017-07-25T06:43:31.368Z,16.15
2017-07-25T06:44:31.049Z,16.12
2017-07-25T06:45:31.029Z,16.2
2017-07-25T06:46:31.045Z,16.28
2017-07-25T06:47:31.322Z,16.25
2017-07-25T06:48:31.025Z,16.3
2017-07-25T06:49:31.313Z,16.23
2017-07-25T06:50:31.332Z,16.33
2017-07-25T06:51:31.322Z,16.25
2017-07-25T06:52:31.013Z,16.25
2017-07-25T06:53:30.999Z,16.2
2017-07-25T06:54:31.003Z,16.27
2017-07-25T06:55:30.988Z,16.23
2017-07-25T06:56:31.309Z,16.39
2017-07-25T06:57:30.983Z,16.34
2017-07-25T06:58:30.989Z,16.34
2017-07-25T06:59:30.975Z,16.43
2017-07-25T07:00:31.287Z,16.43
2017-07-25T07:01:31.269Z,16.43
2017-07-25T07:02:31.275Z,16.45
2017-07-25T07:03:30.957Z,16.39
2017-07-25T07:04:31.271Z,16.52
2017-07-25T07:05:30.962Z,16.46
2017-07-25T07:06:30.941Z,16.45
2017-07-25T07:07:30.956Z,16.5
2017-07-25T07:08:30.935Z,16.5
2017-07-25T07:09:31.257Z,16.46
2017-07-25T07:10:31.233Z,16.35
2017-07-25T07:11:31.242Z,16.33
2017-07-25T07:12:30.912Z,16.21
2017-07-25T07:13:31.219Z,16.21
2017-07-25T07:14:31.241Z,16.17
2017-07-25T07:15:31.224Z,16.2
2017-07-25T07:16:31.206Z,16.11
2017-07-25T07:17:31.198Z,16.12
2017-07-25T07:18:31.194Z,16.11
2017-07-25T07:19:31.205Z,16.09
2017-07-25T07:20:31.188Z,16.2
2017-07-25T07:21:30.889Z,16.15
2017-07-25T07:22:31.174Z,16.2
2017-07-25T07:23:31.189Z,16.23
2017-07-25T07:24:31.170Z,16.25
2017-07-25T07:25:31.177Z,16.2
2017-07-25T07:26:31.172Z,16.24
2017-07-25T07:27:30.866Z,16.24
2017-07-25T07:28:31.154Z,16.33
2017-07-25T07:29:31.164Z,16.27
2017-07-25T07:30:31.148Z,16.27
2017-07-25T07:31:31.146Z,16.27
2017-07-25T07:32:31.151Z,16.33
2017-07-25T07:33:31.149Z,16.23
2017-07-25T07:34:31.142Z,16.33
2017-07-25T07:35:31.125Z,16.33
2017-07-25T07:36:30.809Z,16.34
2017-07-25T07:37:30.809Z,16.34
2017-07-25T07:38:31.119Z,16.41
2017-07-25T07:39:30.810Z,16.34
2017-07-25T07:40:31.112Z,16.34
2017-07-25T07:41:30.807Z,16.38
2017-07-25T07:42:31.082Z,16.33
2017-07-25T07:43:30.790Z,16.33
2017-07-25T07:44:30.781Z,16.38
2017-07-25T07:45:31.090Z,16.28
2017-07-25T07:46:31.062Z,16.23
2017-07-25T07:47:31.072Z,16.3
2017-07-25T07:48:30.763Z,16.38
2017-07-25T07:49:31.076Z,16.25
2017-07-25T07:50:31.064Z,16.34
2017-07-25T07:51:31.070Z,16.23
2017-07-25T07:52:31.062Z,16.21
2017-07-25T07:53:31.060Z,16.2
2017-07-25T07:54:31.037Z,16.3
2017-07-25T07:55:31.049Z,16.3
2017-07-25T07:56:30.716Z,16.28
2017-07-25T07:57:30.723Z,16.21
2017-07-25T07:58:31.019Z,16.25
2017-07-25T07:59:31.040Z,16.2
2017-07-25T08:00:30.715Z,16.33
2017-07-25T08:01:30.708Z,16.33
2017-07-25T08:02:30.999Z,16.24
2017-07-25T08:03:31.018Z,16.25
2017-07-25T08:04:30.996Z,16.25
2017-07-25T08:05:30.996Z,16.34
2017-07-25T08:06:30.987Z,16.2
2017-07-25T08:07:31.003Z,16.3
2017-07-25T08:08:30.985Z,16.33
2017-07-25T08:09:30.670Z,16.34
2017-07-25T08:10:30.965Z,16.33
2017-07-25T08:11:30.988Z,16.38
2017-07-25T08:12:30.952Z,16.39
2017-07-25T08:13:30.980Z,16.38
2017-07-25T08:14:30.328Z,16.43
2017-07-25T08:15:30.971Z,16.34
2017-07-25T08:16:30.332Z,16.41
2017-07-25T08:17:30.949Z,16.31
2017-07-25T08:18:30.618Z,16.38
2017-07-25T08:19:30.627Z,16.39
2017-07-25T08:20:30.928Z,16.49
2017-07-25T08:21:30.938Z,16.53
2017-07-25T08:22:30.927Z,16.53
2017-07-25T08:23:30.911Z,16.48
2017-07-25T08:24:30.916Z,16.52
2017-07-25T08:25:30.905Z,16.49
2017-07-25T08:26:30.918Z,16.6
2017-07-25T08:27:30.898Z,16.57
2017-07-25T08:28:30.897Z,16.58
2017-07-25T08:29:30.904Z,16.56
2017-07-25T08:30:30.876Z,16.52
2017-07-25T08:31:30.889Z,16.56
2017-07-25T08:32:30.892Z,16.58
2017-07-25T08:33:30.893Z,16.66
2017-07-25T08:34:30.874Z,16.57
2017-07-25T08:35:30.864Z,16.7
2017-07-25T08:36:30.554Z,16.68
2017-07-25T08:37:30.881Z,16.61
2017-07-25T08:38:30.868Z,16.71
2017-07-25T08:39:30.849Z,16.66
2017-07-25T08:40:30.545Z,16.71
2017-07-25T08:41:30.528Z,16.67
2017-07-25T08:42:30.855Z,16.64
2017-07-25T08:43:30.826Z,16.57
2017-07-25T08:44:30.846Z,16.52
2017-07-25T08:45:30.819Z,16.49
2017-07-25T08:46:30.828Z,16.34
2017-07-25T08:47:30.802Z,16.41
2017-07-25T08:48:30.815Z,16.39
2017-07-25T08:49:30.810Z,16.33
2017-07-25T08:50:30.808Z,16.33
2017-07-25T08:51:30.811Z,16.34
2017-07-25T08:52:30.802Z,16.35
2017-07-25T08:53:30.477Z,16.39
2017-07-25T08:54:30.489Z,16.33
2017-07-25T08:55:30.771Z,16.2
2017-07-25T08:56:30.772Z,16.09
2017-07-25T08:57:30.782Z,16.07
2017-07-25T08:58:30.789Z,16.09
2017-07-25T08:59:30.461Z,16.05
2017-07-25T09:00:30.471Z,16.15
2017-07-25T09:01:30.744Z,16.09
2017-07-25T09:02:30.771Z,16.08
2017-07-25T09:03:30.739Z,15.96
2017-07-25T09:04:30.751Z,15.96
2017-07-25T09:05:30.738Z,15.96
2017-07-25T09:06:30.753Z,16.05
2017-07-25T09:07:30.740Z,15.92
2017-07-25T09:08:30.729Z,15.96
2017-07-25T09:09:30.717Z,16
2017-07-25T09:10:30.716Z,16.07
2017-07-25T09:11:30.735Z,16.04
2017-07-25T09:12:30.416Z,15.94
2017-07-25T09:13:30.413Z,16.02
2017-07-25T09:14:30.392Z,15.93
2017-07-25T09:15:30.703Z,15.97
2017-07-25T09:16:30.728Z,15.96
2017-07-25T09:17:30.700Z,16
2017-07-25T09:18:30.693Z,15.97
2017-07-25T09:19:30.698Z,16.11
2017-07-25T09:20:30.694Z,16.24
2017-07-25T09:21:30.678Z,16.34
2017-07-25T09:22:30.685Z,16.45
2017-07-25T09:23:30.679Z,16.35
2017-07-25T09:24:30.364Z,16.45
2017-07-25T09:25:30.662Z,16.5
2017-07-25T09:26:30.358Z,16.5
2017-07-25T09:27:30.671Z,16.58
2017-07-25T09:28:30.661Z,16.6
2017-07-25T09:29:30.662Z,16.56
2017-07-25T09:30:30.645Z,16.64
2017-07-25T09:31:30.662Z,16.75
2017-07-25T09:32:30.647Z,16.71
2017-07-25T09:33:30.677Z,16.71
2017-07-25T09:34:30.628Z,16.75
2017-07-25T09:35:30.654Z,16.79
2017-07-25T09:36:30.629Z,16.89
2017-07-25T09:37:30.637Z,17
2017-07-25T09:38:30.322Z,17.08
2017-07-25T09:39:30.335Z,17.14
2017-07-25T09:40:30.309Z,17.08
2017-07-25T09:41:30.638Z,17.34
2017-07-25T09:42:30.628Z,17.58
2017-07-25T09:43:30.605Z,17.63
2017-07-25T09:44:30.304Z,17.71
2017-07-25T09:45:30.611Z,17.64
2017-07-25T09:46:30.295Z,17.68
2017-07-25T09:47:30.617Z,17.66
2017-07-25T09:48:30.591Z,17.68
2017-07-25T09:49:30.295Z,17.71
2017-07-25T09:50:30.589Z,17.82
2017-07-25T09:51:30.603Z,18.02
2017-07-25T09:52:30.592Z,18.23
2017-07-25T09:53:30.297Z,18.33
2017-07-25T09:54:30.579Z,18.51
2017-07-25T09:55:30.592Z,18.65
2017-07-25T09:56:30.287Z,18.8
2017-07-25T09:57:29.979Z,18.9
2017-07-25T09:58:30.288Z,19
2017-07-25T09:59:29.962Z,19.14
2017-07-25T10:00:30.275Z,19.41
2017-07-25T10:01:30.276Z,19.46
2017-07-25T10:02:30.591Z,19.62
2017-07-25T10:03:30.584Z,19.78
2017-07-25T10:04:30.601Z,19.94
2017-07-25T10:05:30.579Z,20.02
2017-07-25T10:06:30.597Z,20.1
2017-07-25T10:07:30.579Z,20.06
2017-07-25T10:08:30.588Z,20.06
2017-07-25T10:09:30.599Z,19.87
2017-07-25T10:10:30.586Z,19.91
2017-07-25T10:11:30.269Z,19.84
2017-07-25T10:12:30.588Z,19.84
2017-07-25T10:13:30.595Z,20.01
2017-07-25T10:14:30.283Z,20.05
2017-07-25T10:15:30.267Z,20.06
2017-07-25T10:16:30.582Z,20.24
2017-07-25T10:17:30.283Z,20.24
2017-07-25T10:18:30.592Z,20.57
2017-07-25T10:19:30.588Z,20.74
2017-07-25T10:20:30.285Z,20.72
2017-07-25T10:21:30.580Z,20.88
2017-07-25T10:22:30.608Z,20.94
2017-07-25T10:23:30.589Z,20.98
2017-07-25T10:24:30.588Z,21.12
2017-07-25T10:25:30.577Z,21.14
2017-07-25T10:26:30.605Z,21.22
2017-07-25T10:27:30.600Z,21.35
2017-07-25T10:28:30.597Z,21.43
2017-07-25T10:29:30.595Z,21.61
2017-07-25T10:30:30.585Z,21.5
2017-07-25T10:31:30.635Z,21.46
2017-07-25T10:32:30.312Z,21.28
2017-07-25T10:33:30.614Z,21.19
2017-07-25T10:34:30.588Z,21.21
2017-07-25T10:35:30.621Z,21.25
2017-07-25T10:36:30.637Z,21.37
2017-07-25T10:37:30.606Z,21.5
2017-07-25T10:38:30.618Z,21.68
2017-07-25T10:39:30.614Z,21.61
2017-07-25T10:40:30.623Z,21.42
2017-07-25T10:41:30.612Z,21.38
2017-07-25T10:42:30.325Z,21.52
2017-07-25T10:43:30.636Z,21.47
2017-07-25T10:44:30.624Z,21.58
2017-07-25T10:45:30.628Z,21.8
2017-07-25T10:46:30.310Z,21.65
2017-07-25T10:47:30.335Z,21.67
2017-07-25T10:48:30.332Z,21.72
2017-07-25T10:49:30.650Z,21.8
2017-07-25T10:50:30.326Z,21.86
2017-07-25T10:51:30.341Z,21.75
2017-07-25T10:52:30.637Z,21.74
2017-07-25T10:53:30.653Z,21.59
2017-07-25T10:54:30.640Z,21.4
2017-07-25T10:55:30.348Z,21.44
2017-07-25T10:56:30.645Z,21.5
2017-07-25T10:57:30.676Z,21.38
2017-07-25T10:58:30.651Z,21.38
2017-07-25T10:59:30.662Z,21.28
2017-07-25T11:00:30.656Z,21.38
2017-07-25T11:01:30.670Z,21.4
2017-07-25T11:02:30.668Z,21.34
2017-07-25T11:03:30.678Z,21.47
2017-07-25T11:04:30.671Z,21.59
2017-07-25T11:05:30.377Z,21.84
2017-07-25T11:06:30.667Z,21.84
2017-07-25T11:07:30.692Z,21.64
2017-07-25T11:08:30.365Z,21.64
2017-07-25T11:09:30.388Z,21.69
2017-07-25T11:10:30.064Z,21.99
2017-07-25T11:11:30.695Z,22.21
2017-07-25T11:12:30.696Z,22.51
2017-07-25T11:13:30.716Z,22.75
2017-07-25T11:14:30.684Z,22.92
2017-07-25T11:15:30.709Z,23.16
2017-07-25T11:16:30.705Z,23.19
2017-07-25T11:17:30.704Z,23.13
2017-07-25T11:18:30.701Z,23.32
2017-07-25T11:19:30.725Z,23.42
2017-07-25T11:20:30.752Z,23.33
2017-07-25T11:21:30.738Z,23.17
2017-07-25T11:22:30.108Z,22.92
2017-07-25T11:23:30.745Z,22.7
2017-07-25T11:24:30.737Z,22.6
2017-07-25T11:25:30.471Z,22.64
2017-07-25T11:26:30.727Z,22.77
2017-07-25T11:27:30.753Z,22.85
2017-07-25T11:28:30.749Z,23.02
2017-07-25T11:29:30.748Z,23.04
2017-07-25T11:30:30.464Z,22.9
2017-07-25T11:31:30.769Z,22.85
2017-07-25T11:32:30.763Z,22.8
2017-07-25T11:33:30.456Z,22.7
2017-07-25T11:34:30.771Z,22.61
2017-07-25T11:35:30.782Z,22.47
2017-07-25T11:36:30.775Z,22.52
2017-07-25T11:37:30.795Z,22.51
2017-07-25T11:38:30.791Z,22.36
2017-07-25T11:39:30.784Z,22.27
2017-07-25T11:40:30.783Z,22.3
2017-07-25T11:41:30.500Z,22.3
2017-07-25T11:42:30.790Z,22.37
2017-07-25T11:43:30.812Z,22.54
2017-07-25T11:44:30.496Z,22.64
2017-07-25T11:45:30.818Z,22.88
2017-07-25T11:46:30.492Z,22.9
2017-07-25T11:47:30.800Z,23.01
2017-07-25T11:48:30.820Z,23.05
2017-07-25T11:49:30.520Z,23.19
2017-07-25T11:50:30.822Z,22.95
2017-07-25T11:51:30.821Z,22.92
2017-07-25T11:52:30.831Z,22.82
2017-07-25T11:53:30.840Z,22.64
2017-07-25T11:54:30.833Z,22.54
2017-07-25T11:55:30.845Z,22.64
2017-07-25T11:56:30.836Z,22.79
2017-07-25T11:57:30.852Z,22.95
2017-07-25T11:58:30.838Z,23.16
2017-07-25T11:59:30.858Z,23.33
2017-07-25T12:00:30.843Z,23.55
2017-07-25T12:01:30.865Z,23.51
2017-07-25T12:02:30.851Z,23.54
2017-07-25T12:03:30.857Z,23.54
2017-07-25T12:04:30.881Z,23.78
2017-07-25T12:05:30.874Z,23.95
2017-07-25T12:06:30.882Z,24.12
2017-07-25T12:07:30.877Z,24.13
2017-07-25T12:08:30.882Z,24.12
2017-07-25T12:09:30.566Z,24.35
2017-07-25T12:10:30.900Z,24.57
2017-07-25T12:11:30.590Z,24.73
2017-07-25T12:12:30.914Z,24.83
2017-07-25T12:13:30.587Z,24.84
2017-07-25T12:14:30.911Z,24.91
2017-07-25T12:15:30.893Z,24.95
2017-07-25T12:16:30.918Z,24.95
2017-07-25T12:17:30.904Z,24.85
2017-07-25T12:18:30.928Z,24.64
2017-07-25T12:19:30.926Z,24.32
2017-07-25T12:20:30.925Z,24.13
2017-07-25T12:21:30.950Z,24.06
2017-07-25T12:22:30.973Z,24
2017-07-25T12:23:30.946Z,23.84
2017-07-25T12:24:30.637Z,23.73
2017-07-25T12:25:30.947Z,23.63
2017-07-25T12:26:30.961Z,23.58
2017-07-25T12:27:30.952Z,23.48
2017-07-25T12:28:30.974Z,23.42
2017-07-25T12:29:30.946Z,23.47
2017-07-25T12:30:30.983Z,23.57
2017-07-25T12:31:30.973Z,23.85
2017-07-25T12:32:30.978Z,23.72
2017-07-25T12:33:30.974Z,23.57
2017-07-25T12:34:30.690Z,23.39
2017-07-25T12:35:30.675Z,23.2
2017-07-25T12:36:31.008Z,22.91
2017-07-25T12:37:30.707Z,22.75
2017-07-25T12:38:30.981Z,22.49
2017-07-25T12:39:31.013Z,22.36
2017-07-25T12:40:31.008Z,22.25
2017-07-25T12:41:31.022Z,22.17
2017-07-25T12:42:30.687Z,22.07
2017-07-25T12:43:31.026Z,22.03
2017-07-25T12:44:31.020Z,22.05
2017-07-25T12:45:31.004Z,22
2017-07-25T12:46:30.414Z,21.9
2017-07-25T12:47:30.706Z,21.86
2017-07-25T12:48:31.022Z,21.84
2017-07-25T12:49:30.721Z,21.67
2017-07-25T12:50:31.031Z,21.56
2017-07-25T12:51:31.042Z,21.64
2017-07-25T12:52:31.032Z,21.56
2017-07-25T12:53:31.020Z,21.42
2017-07-25T12:54:31.019Z,21.43
2017-07-25T12:55:31.052Z,21.47